Vinegar Bend, Alabama
Current Conditions -  °F | °C
As of 10:56 PM on Friday 19 Dec 2014 (Local Time) from KMOB Reporting Station
Overcast Overcast  
Wind Chill:   Ceiling: 500
Heat Index:   Visibility: 10mi
Dew Point:   Wind: 12mph
Humidity: 100%   Direction: 50°NE
Pressure: 30.11"   Gusts: NA
Location:  31.26°N, 88.34°W
Report Text: KMOB 200456Z 05010KT 10SM OVC005 07/07 A3011 RMK AO2 RAE31 SLP195 P0000 T00720072 $
Loading
Personal Weather Stations






























Interactive Weather Map New forecast layout! Learn more

10-Day Weather Forecast

Advertisements
Track Severe Weather on mobile